KAPG/APG METAR and TAF weather

Enter ICAO airport designator
Station Type Date Time Source
KAPG METAR 2021/09/25 02:58 UTC NOAA

KAPG 250258Z AUTO 00000KT 10SM CLR 12/12 A3007 RMK AO2 LTG DSNT E SLP186 T01230121 50006


Station Type Date Time Source
KAPG Decoded METAR 2021/09/25 02:58 UTC NOAA

Phillips Army Air Field / Aberdeen, MD, United States (KAPG) 39-28N 076-10W
Sep 24, 2021 - 10:58 PM EDT / 2021.09.25 0258 UTC
Wind: Calm:0
Visibility: 10 mile(s):0
Sky conditions: clear
Weather: Lightning observed
Temperature: 54.1 F (12.3 C)
Dew Point: 53.8 F (12.1 C)
Relative Humidity: 98%
Pressure (altimeter): 30.07 in. Hg (1018 hPa)
Pressure tendency: 0.02 inches (0.6 hPa) higher than three hours ago
ob: KAPG 250258Z AUTO 00000KT 10SM CLR 12/12 A3007 RMK AO2 LTG DSNT E SLP186 T01230121 50006
cycle: 3

Station Type Date Time Source
KAPG TAF UTC NOAA

Error!

Example: see airport list